Time;durP1;ratioP1;P1;durP2;ratioP2;P2;SDS_P1;SDS_P2;PMS_P1;PMS_P2;Temp;Humidity;BMP_temperature;BMP_pressure;BME280_temperature;BME280_humidity;BME280_pressure;Samples;Min_cycle;Max_cycle;Signal;HPM_P1;HPM_P2
2022/10/28 00:01:24;;;;;;;19.73;10.63;;;14.50;99.90;;;;;;5054818;28;20043;-71
2022/10/28 00:03:55;;;;;;;16.20;10.68;;;14.50;99.90;;;;;;5054471;28;20099;-70
2022/10/28 00:06:27;;;;;;;20.27;12.43;;;14.50;99.90;;;;;;5055220;28;20461;-71
2022/10/28 00:08:54;;;;;;;17.45;10.38;;;14.60;99.90;;;;;;5054795;28;20067;-70
2022/10/28 00:11:28;;;;;;;15.80;9.23;;;14.60;99.90;;;;;;5071781;28;20485;-71
2022/10/28 00:13:58;;;;;;;18.70;10.85;;;14.50;99.90;;;;;;5054721;28;20485;-70
2022/10/28 00:16:27;;;;;;;22.27;11.45;;;14.50;99.90;;;;;;5071472;28;20040;-70
2022/10/28 00:18:54;;;;;;;19.42;11.05;;;14.50;99.90;;;;;;5071277;28;20084;-70
2022/10/28 00:21:25;;;;;;;25.13;11.98;;;14.50;99.90;;;;;;5071219;28;20106;-70
2022/10/28 00:23:51;;;;;;;21.05;11.70;;;14.60;99.90;;;;;;5071348;28;20139;-70
2022/10/28 00:26:30;;;;;;;20.73;11.90;;;14.60;99.90;;;;;;5071461;28;20496;-71
2022/10/28 00:28:59;;;;;;;24.20;12.20;;;14.60;99.90;;;;;;5071398;28;20568;-71
2022/10/28 00:31:26;;;;;;;15.32;8.30;;;14.70;99.90;;;;;;5071505;28;20044;-71
2022/10/28 00:33:52;;;;;;;14.32;9.45;;;14.50;99.90;;;;;;5071382;28;20105;-71
2022/10/28 00:36:21;;;;;;;17.67;10.10;;;14.40;99.90;;;;;;5054851;28;20044;-71
2022/10/28 00:38:48;;;;;;;21.08;11.55;;;14.50;99.90;;;;;;5054630;28;20053;-71
2022/10/28 00:41:17;;;;;;;18.80;11.45;;;14.50;99.90;;;;;;5054230;28;20381;-71
2022/10/28 00:43:48;;;;;;;18.83;10.73;;;14.50;99.90;;;;;;5071162;28;20045;-72
2022/10/28 00:46:23;;;;;;;21.25;11.82;;;14.60;99.90;;;;;;5071386;28;20373;-71
2022/10/28 00:48:54;;;;;;;21.38;12.57;;;14.60;99.90;;;;;;5054447;28;20492;-71
2022/10/28 00:51:23;;;;;;;22.38;12.70;;;14.60;99.90;;;;;;5071532;28;20186;-70
2022/10/28 00:53:51;;;;;;;20.35;12.38;;;14.70;99.90;;;;;;5054400;28;20420;-70
2022/10/28 00:56:17;;;;;;;25.60;13.48;;;14.80;99.90;;;;;;5054490;28;20052;-71
2022/10/28 00:58:45;;;;;;;25.63;12.95;;;14.80;99.90;;;;;;5057319;28;20093;-70
2022/10/28 01:01:11;;;;;;;23.65;12.35;;;14.80;99.90;;;;;;5074324;28;20106;-71
2022/10/28 01:03:50;;;;;;;27.80;13.00;;;14.90;99.90;;;;;;5057698;28;20428;-71
2022/10/28 01:06:16;;;;;;;25.98;13.27;;;15.00;99.90;;;;;;5074627;28;20435;-71
2022/10/28 01:08:41;;;;;;;22.13;13.15;;;15.00;99.90;;;;;;5057796;28;20370;-71
2022/10/28 01:11:24;;;;;;;24.95;12.85;;;15.00;99.90;;;;;;5074043;28;20052;-71
2022/10/28 01:14:22;;;;;;;26.35;12.52;;;15.10;99.90;;;;;;5057733;28;20049;-71
2022/10/28 01:17:08;;;;;;;26.50;13.32;;;15.20;99.90;;;;;;5057612;28;20088;-72
2022/10/28 01:19:52;;;;;;;24.90;12.60;;;15.20;99.90;;;;;;5057639;28;20041;-71
2022/10/28 01:22:18;;;;;;;23.20;12.52;;;15.30;99.90;;;;;;5074180;28;20406;-71
2022/10/28 01:25:21;;;;;;;25.77;12.43;;;15.20;99.90;;;;;;5057812;28;20048;-71
2022/10/28 01:28:15;;;;;;;25.38;12.35;;;15.20;99.90;;;;;;5074082;28;20050;-71
2022/10/28 01:31:07;;;;;;;22.23;12.45;;;15.10;99.90;;;;;;5074354;28;20049;-71
2022/10/28 01:33:39;;;;;;;;;;;15.00;99.90;;;;;;5049078;28;20424;-72
2022/10/28 01:36:17;;;;;;;25.10;12.90;;;15.00;99.90;;;;;;5074056;28;19943;-71
2022/10/28 01:38:53;;;;;;;28.27;13.45;;;14.90;99.90;;;;;;5074304;28;20143;-71
2022/10/28 01:41:34;;;;;;;29.45;14.02;;;14.90;99.90;;;;;;5073865;28;20506;-71
2022/10/28 01:44:23;;;;;;;25.70;13.77;;;14.90;99.90;;;;;;5074042;28;20366;-71
2022/10/28 01:47:10;;;;;;;21.77;12.55;;;15.00;99.90;;;;;;5074117;28;20040;-71
2022/10/28 01:49:55;;;;;;;26.55;14.35;;;14.90;99.90;;;;;;5074086;28;20071;-70
2022/10/28 01:52:24;;;;;;;24.30;13.63;;;14.80;99.90;;;;;;5074021;28;20041;-71
2022/10/28 01:54:57;;;;;;;30.67;14.13;;;14.70;99.90;;;;;;5057148;28;20059;-71
2022/10/28 01:57:26;;;;;;;32.00;14.93;;;14.70;99.90;;;;;;5056930;28;20067;-71
2022/10/28 01:59:52;;;;;;;19.60;13.10;;;14.60;99.90;;;;;;5073323;28;20378;-71
2022/10/28 02:02:17;;;;;;;28.65;14.70;;;14.60;99.90;;;;;;5056922;28;20088;-71
2022/10/28 02:04:43;;;;;;;26.05;13.90;;;14.60;99.90;;;;;;5073318;28;20566;-71
2022/10/28 02:07:09;;;;;;;30.83;14.80;;;14.50;99.90;;;;;;5073435;28;20086;-71
2022/10/28 02:10:02;;;;;;;22.52;14.15;;;14.50;99.90;;;;;;5072492;28;20131;-71
2022/10/28 02:12:35;;;;;;;24.30;13.80;;;14.50;99.90;;;;;;5073592;28;20498;-71
2022/10/28 02:15:39;;;;;;;28.02;14.90;;;14.50;99.90;;;;;;5056535;28;20477;-71
2022/10/28 02:18:30;;;;;;;28.38;14.20;;;14.50;99.90;;;;;;5056602;28;20052;-71
2022/10/28 02:21:21;;;;;;;27.00;13.90;;;14.50;99.90;;;;;;5072664;28;20059;-71
2022/10/28 02:24:08;;;;;;;28.05;14.38;;;14.50;99.90;;;;;;5073378;28;20550;-71
2022/10/28 02:26:41;;;;;;;23.20;13.50;;;14.40;99.90;;;;;;5056809;28;20389;-71
2022/10/28 02:29:22;;;;;;;22.13;13.32;;;14.40;99.90;;;;;;5056383;28;20051;-70
2022/10/28 02:31:55;;;;;;;29.88;14.23;;;14.40;99.90;;;;;;5056568;28;20049;-71
2022/10/28 02:34:28;;;;;;;19.63;12.00;;;14.30;99.90;;;;;;5072952;28;20452;-71
2022/10/28 02:36:57;;;;;;;15.68;10.75;;;14.20;99.90;;;;;;5073051;28;20059;-71
2022/10/28 02:39:29;;;;;;;21.85;12.27;;;14.00;99.90;;;;;;5072686;28;20056;-70
2022/10/28 02:42:00;;;;;;;25.33;13.90;;;13.90;99.90;;;;;;5056071;28;20497;-71
2022/10/28 02:44:30;;;;;;;33.37;14.80;;;13.90;99.90;;;;;;5072916;28;20052;-71
2022/10/28 02:47:00;;;;;;;31.88;15.30;;;13.90;99.90;;;;;;5072931;28;20127;-70
2022/10/28 02:49:28;;;;;;;25.23;14.90;;;13.90;99.90;;;;;;5072935;28;20516;-70
2022/10/28 02:51:58;;;;;;;31.88;15.85;;;13.90;99.90;;;;;;5072719;28;20090;-71
2022/10/28 02:54:42;;;;;;;28.40;15.77;;;13.90;99.90;;;;;;5055787;28;20044;-71
2022/10/28 02:57:14;;;;;;;27.63;14.73;;;13.90;99.90;;;;;;5072614;28;20052;-71
2022/10/28 02:59:40;;;;;;;25.80;14.98;;;13.90;99.90;;;;;;5056024;28;20044;-71
2022/10/28 03:02:06;;;;;;;20.40;12.07;;;13.90;99.90;;;;;;5072418;28;20397;-70
2022/10/28 03:04:32;;;;;;;21.15;13.07;;;13.70;99.90;;;;;;5055547;28;20056;-71
2022/10/28 03:06:58;;;;;;;25.45;15.05;;;13.70;99.90;;;;;;5072212;28;20040;-71
2022/10/28 03:09:23;;;;;;;28.83;15.15;;;13.70;99.90;;;;;;5022693;28;20051;-70
2022/10/28 03:11:49;;;;;;;29.92;15.07;;;13.80;99.90;;;;;;5055598;28;20052;-70
2022/10/28 03:14:15;;;;;;;32.90;15.93;;;13.80;99.90;;;;;;5055665;28;20048;-71
2022/10/28 03:16:41;;;;;;;28.80;15.35;;;13.80;99.90;;;;;;5055632;28;20041;-70
2022/10/28 03:19:06;;;;;;;31.20;15.30;;;13.80;99.90;;;;;;5039322;28;20052;-70
2022/10/28 03:21:32;;;;;;;28.60;15.52;;;13.80;99.90;;;;;;5071761;28;20044;-71
2022/10/28 03:23:58;;;;;;;26.23;15.10;;;13.80;99.90;;;;;;5022662;28;20484;-70
2022/10/28 03:26:23;;;;;;;31.13;15.65;;;13.80;99.90;;;;;;5055445;28;20040;-70
2022/10/28 03:28:49;;;;;;;28.17;14.65;;;13.80;99.90;;;;;;5072332;28;20133;-70
2022/10/28 03:31:15;;;;;;;25.02;13.40;;;13.80;99.90;;;;;;5055257;28;20370;-71
2022/10/28 03:33:41;;;;;;;31.67;15.98;;;13.70;99.90;;;;;;5039160;28;20127;-70
2022/10/28 03:36:07;;;;;;;30.42;14.88;;;13.80;99.90;;;;;;5070699;28;20540;-71
2022/10/28 03:38:33;;;;;;;30.95;16.83;;;13.80;99.90;;;;;;4694071;28;9999718;-71
2022/10/28 03:40:59;;;;;;;30.40;17.10;;;13.80;99.90;;;;;;5051403;28;20132;-71
2022/10/28 03:43:24;;;;;;;29.48;15.63;;;13.80;99.90;;;;;;5037959;28;20045;-70
2022/10/28 03:45:50;;;;;;;29.08;16.00;;;13.80;99.90;;;;;;5040114;28;20397;-70
2022/10/28 03:48:16;;;;;;;29.25;15.93;;;13.80;99.90;;;;;;5025625;28;20083;-71
2022/10/28 03:50:41;;;;;;;31.27;15.57;;;13.80;99.90;;;;;;5068798;28;20037;-70
2022/10/28 03:53:07;;;;;;;28.60;16.10;;;13.80;99.90;;;;;;5052570;28;20504;-71
2022/10/28 03:55:33;;;;;;;29.83;15.30;;;13.80;99.90;;;;;;5038524;28;20075;-70
2022/10/28 03:58:02;;;;;;;29.23;16.65;;;13.80;99.90;;;;;;5069553;28;20036;-71
2022/10/28 04:00:29;;;;;;;26.90;15.30;;;13.80;99.90;;;;;;5051807;28;20044;-71
2022/10/28 04:02:54;;;;;;;29.13;15.43;;;13.80;99.90;;;;;;5069346;28;20048;-71
2022/10/28 04:05:21;;;;;;;32.58;16.58;;;13.80;99.90;;;;;;5052542;28;20450;-70
2022/10/28 04:07:46;;;;;;;33.33;15.77;;;13.80;99.90;;;;;;5052556;28;20037;-70
2022/10/28 04:10:12;;;;;;;25.85;15.07;;;13.80;99.90;;;;;;5052643;28;20102;-70
2022/10/28 04:12:38;;;;;;;29.05;16.48;;;13.80;99.90;;;;;;5054598;28;20459;-72
2022/10/28 04:15:04;;;;;;;35.67;17.55;;;13.70;99.90;;;;;;5069250;28;20036;-70
2022/10/28 04:17:32;;;;;;;28.60;16.45;;;13.70;99.90;;;;;;5051999;28;20068;-71
2022/10/28 04:19:58;;;;;;;27.63;16.35;;;13.70;99.90;;;;;;5052496;28;20091;-71
2022/10/28 04:22:23;;;;;;;32.05;16.10;;;13.70;99.90;;;;;;5068919;28;20496;-71
2022/10/28 04:24:49;;;;;;;30.90;16.40;;;13.70;99.90;;;;;;5051840;28;20041;-70
2022/10/28 04:27:15;;;;;;;28.73;15.45;;;13.70;99.90;;;;;;5059796;28;20080;-71
2022/10/28 04:29:40;;;;;;;29.60;15.55;;;13.60;99.90;;;;;;5042375;28;20045;-70
2022/10/28 04:32:07;;;;;;;30.60;16.20;;;13.70;99.90;;;;;;5067764;28;20546;-70
2022/10/28 04:34:32;;;;;;;32.25;16.15;;;13.70;99.90;;;;;;5058044;28;20128;-70
2022/10/28 04:36:58;;;;;;;30.67;17.23;;;13.70;99.90;;;;;;5041882;28;20099;-70
2022/10/28 04:39:24;;;;;;;31.92;17.58;;;13.70;99.90;;;;;;5058378;28;20044;-70
2022/10/28 04:41:50;;;;;;;37.63;17.42;;;13.80;99.90;;;;;;5058582;28;20040;-70
2022/10/28 04:44:15;;;;;;;32.83;16.95;;;13.80;99.90;;;;;;5075201;28;20048;-70
2022/10/28 04:46:41;;;;;;;32.15;16.67;;;13.80;99.90;;;;;;5058400;28;20055;-70
2022/10/28 04:49:07;;;;;;;33.97;16.27;;;13.80;99.90;;;;;;5058541;28;20052;-71
2022/10/28 04:51:32;;;;;;;31.63;16.70;;;13.80;99.90;;;;;;5041713;28;20056;-70
2022/10/28 04:53:58;;;;;;;29.13;16.00;;;13.80;99.90;;;;;;5074805;28;20404;-70
2022/10/28 04:56:24;;;;;;;30.35;15.13;;;13.90;99.90;;;;;;5074862;28;20041;-70
2022/10/28 04:58:50;;;;;;;32.13;15.63;;;13.80;99.90;;;;;;5058248;28;20084;-70
2022/10/28 05:01:15;;;;;;;35.33;16.30;;;13.80;99.90;;;;;;5074506;28;20123;-71
2022/10/28 05:03:41;;;;;;;31.95;16.50;;;13.90;99.90;;;;;;5074176;28;20093;-70
2022/10/28 05:06:07;;;;;;;37.55;16.27;;;13.90;99.90;;;;;;5057955;28;20060;-70
2022/10/28 05:08:32;;;;;;;29.45;15.73;;;13.80;99.90;;;;;;5074510;28;20114;-70
2022/10/28 05:10:58;;;;;;;32.92;16.00;;;13.80;99.90;;;;;;5058136;28;20052;-71
2022/10/28 05:13:24;;;;;;;29.02;15.85;;;13.70;99.90;;;;;;5057861;28;20087;-70
2022/10/28 05:15:50;;;;;;;38.72;17.05;;;13.80;99.90;;;;;;5074588;28;20048;-70
2022/10/28 05:18:16;;;;;;;33.90;16.38;;;13.90;99.90;;;;;;5074664;28;20131;-70
2022/10/28 05:20:42;;;;;;;30.75;16.45;;;13.90;99.90;;;;;;5057586;28;20131;-70
2022/10/28 05:23:08;;;;;;;34.75;17.33;;;13.90;99.90;;;;;;5074637;28;20480;-70
2022/10/28 05:25:34;;;;;;;28.40;16.23;;;14.00;99.90;;;;;;5074318;28;20055;-70
2022/10/28 05:28:00;;;;;;;32.67;16.77;;;13.90;99.90;;;;;;5074465;28;20040;-71
2022/10/28 05:30:27;;;;;;;31.23;16.15;;;13.90;99.90;;;;;;5057604;28;20056;-70
2022/10/28 05:33:03;;;;;;;31.75;15.95;;;13.90;99.90;;;;;;5057690;28;20555;-70
2022/10/28 05:35:29;;;;;;;30.52;16.95;;;13.90;99.90;;;;;;5057083;28;20048;-70
2022/10/28 05:37:56;;;;;;;35.05;16.63;;;13.90;99.90;;;;;;5057529;28;20481;-70
2022/10/28 05:40:21;;;;;;;33.47;14.95;;;14.00;99.90;;;;;;5057351;28;20045;-70
2022/10/28 05:42:47;;;;;;;30.50;15.63;;;14.00;99.90;;;;;;5073808;28;20051;-70
2022/10/28 05:45:13;;;;;;;29.83;15.68;;;14.00;99.90;;;;;;5074137;28;20419;-70
2022/10/28 05:47:43;;;;;;;30.50;15.27;;;14.00;99.90;;;;;;5073955;28;20043;-70
2022/10/28 05:50:10;;;;;;;27.13;14.80;;;14.00;99.90;;;;;;5073791;28;20396;-71
2022/10/28 05:52:36;;;;;;;29.10;14.95;;;14.00;99.90;;;;;;4711368;28;9999721;-70
2022/10/28 05:55:01;;;;;;;31.15;15.20;;;14.00;99.90;;;;;;5052167;28;20045;-70
2022/10/28 05:57:27;;;;;;;33.70;15.10;;;14.00;99.90;;;;;;5039938;28;20053;-70
2022/10/28 05:59:53;;;;;;;30.13;14.57;;;14.00;99.90;;;;;;5037478;28;20528;-70
2022/10/28 06:02:21;;;;;;;32.53;14.95;;;14.00;99.90;;;;;;5041248;28;20048;-70
2022/10/28 06:04:47;;;;;;;28.65;14.27;;;14.00;99.90;;;;;;5053491;28;20056;-70
2022/10/28 06:07:13;;;;;;;25.63;13.73;;;14.00;99.90;;;;;;5054581;28;20059;-70
2022/10/28 06:09:39;;;;;;;29.45;14.48;;;14.00;99.90;;;;;;5043373;28;20482;-70
2022/10/28 06:12:07;;;;;;;30.23;14.40;;;14.00;99.90;;;;;;5067374;28;20056;-70
2022/10/28 06:14:33;;;;;;;25.80;13.65;;;14.00;99.90;;;;;;5053901;28;20052;-70
2022/10/28 06:16:58;;;;;;;31.42;14.02;;;13.90;99.90;;;;;;5035635;28;20036;-71
2022/10/28 06:19:24;;;;;;;27.13;13.98;;;13.90;99.90;;;;;;5032285;28;20483;-70
2022/10/28 06:21:53;;;;;;;25.05;13.93;;;14.00;99.90;;;;;;5050561;28;20056;-70
2022/10/28 06:24:18;;;;;;;25.70;13.77;;;14.00;99.90;;;;;;5034778;28;20044;-70
2022/10/28 06:26:44;;;;;;;28.38;13.45;;;14.00;99.90;;;;;;5061711;28;20043;-70
2022/10/28 06:29:11;;;;;;;25.58;13.85;;;14.00;99.90;;;;;;5056320;28;20043;-70
2022/10/28 06:31:41;;;;;;;27.90;13.90;;;14.00;99.90;;;;;;5072934;28;20052;-70
2022/10/28 06:34:08;;;;;;;23.35;13.00;;;14.10;99.90;;;;;;5056483;28;20048;-70
2022/10/28 06:36:34;;;;;;;25.98;13.18;;;14.10;99.90;;;;;;5039631;28;20117;-69
2022/10/28 06:39:00;;;;;;;24.38;12.70;;;14.10;99.90;;;;;;5056469;28;20469;-70
2022/10/28 06:41:25;;;;;;;24.52;12.95;;;14.10;99.90;;;;;;5072343;28;20078;-70
2022/10/28 06:43:51;;;;;;;22.35;12.32;;;14.10;99.90;;;;;;5072695;28;20040;-70
2022/10/28 06:46:18;;;;;;;25.02;12.75;;;14.10;99.90;;;;;;5039435;28;20571;-70
2022/10/28 06:48:44;;;;;;;25.23;13.18;;;14.20;99.90;;;;;;5055708;28;20056;-70
2022/10/28 06:51:09;;;;;;;22.50;13.15;;;14.20;99.90;;;;;;5039639;28;20052;-70
2022/10/28 06:53:35;;;;;;;28.83;13.07;;;14.30;99.90;;;;;;5056041;28;20460;-70
2022/10/28 06:56:03;;;;;;;25.20;13.45;;;14.30;99.90;;;;;;5055169;28;20048;-70
2022/10/28 06:58:28;;;;;;;28.52;13.73;;;14.40;99.90;;;;;;5055859;28;20052;-70
2022/10/28 07:00:54;;;;;;;24.05;13.75;;;14.40;99.90;;;;;;5055744;28;20036;-70
2022/10/28 07:03:20;;;;;;;21.40;13.07;;;14.40;99.90;;;;;;5055388;28;20064;-69
2022/10/28 07:05:48;;;;;;;27.02;13.05;;;14.50;99.90;;;;;;5039155;28;20084;-70
2022/10/28 07:08:14;;;;;;;22.92;12.55;;;14.50;99.90;;;;;;5055962;28;20049;-70
2022/10/28 07:10:41;;;;;;;21.40;12.82;;;14.50;99.90;;;;;;5055678;28;20041;-71
2022/10/28 07:13:06;;;;;;;22.45;12.55;;;14.50;99.90;;;;;;5072484;28;20048;-70
2022/10/28 07:15:32;;;;;;;25.27;13.18;;;14.60;99.90;;;;;;5072346;28;20048;-71
2022/10/28 07:17:58;;;;;;;23.52;12.05;;;14.60;99.90;;;;;;5055560;28;20059;-70
2022/10/28 07:20:26;;;;;;;20.17;12.88;;;14.70;99.90;;;;;;5072265;28;20048;-70
2022/10/28 07:22:59;;;;;;;23.42;12.80;;;14.70;99.90;;;;;;5055461;28;20468;-70
2022/10/28 07:25:29;;;;;;;26.33;13.30;;;14.80;99.90;;;;;;5072425;28;20045;-70
2022/10/28 07:27:59;;;;;;;22.52;12.98;;;14.90;99.90;;;;;;5038851;28;20048;-70
2022/10/28 07:30:25;;;;;;;27.63;12.15;;;14.90;99.90;;;;;;5039067;28;20102;-71
2022/10/28 07:32:51;;;;;;;19.08;12.25;;;15.00;99.90;;;;;;5072048;28;20041;-70
2022/10/28 07:35:17;;;;;;;21.23;12.07;;;15.10;99.90;;;;;;5071892;28;20396;-70
2022/10/28 07:37:42;;;;;;;19.98;11.23;;;15.20;99.90;;;;;;5055282;28;20055;-70
2022/10/28 07:40:09;;;;;;;23.70;11.30;;;15.20;99.90;;;;;;5038700;28;20098;-70
2022/10/28 07:42:34;;;;;;;19.88;10.40;;;15.30;99.90;;;;;;5055449;28;20453;-70
2022/10/28 07:45:00;;;;;;;21.67;11.30;;;15.40;99.90;;;;;;5055309;28;20045;-70
2022/10/28 07:47:26;;;;;;;22.67;10.80;;;15.40;99.90;;;;;;5072157;28;20048;-70
2022/10/28 07:49:53;;;;;;;24.58;11.43;;;15.50;99.90;;;;;;5054990;28;20063;-70
2022/10/28 07:52:19;;;;;;;22.88;11.07;;;15.50;99.90;;;;;;5071979;28;20123;-70
2022/10/28 07:54:45;;;;;;;21.25;9.35;;;15.60;99.90;;;;;;5055108;28;20554;-70
2022/10/28 07:57:11;;;;;;;20.08;10.60;;;15.70;99.90;;;;;;5071636;28;20048;-70
2022/10/28 07:59:37;;;;;;;15.38;10.15;;;15.80;99.90;;;;;;5038619;28;20048;-70
2022/10/28 08:02:02;;;;;;;20.35;10.23;;;16.00;99.90;;;;;;5054986;28;20232;-70
2022/10/28 08:04:29;;;;;;;17.48;10.18;;;16.10;99.90;;;;;;5071149;28;20052;-70
2022/10/28 08:06:55;;;;;;;17.45;10.35;;;16.20;99.90;;;;;;5071606;28;20051;-70
2022/10/28 08:09:20;;;;;;;20.25;10.30;;;16.30;99.90;;;;;;5042780;28;20044;-70
2022/10/28 08:11:46;;;;;;;23.25;9.70;;;16.40;99.90;;;;;;5075573;28;20045;-70
2022/10/28 08:14:12;;;;;;;15.20;9.43;;;16.40;99.90;;;;;;5059217;28;20055;-70
2022/10/28 08:16:37;;;;;;;20.52;9.52;;;16.50;99.90;;;;;;5075827;28;20463;-70
2022/10/28 08:19:03;;;;;;;17.98;9.00;;;16.60;99.90;;;;;;5042033;28;20044;-70
2022/10/28 08:21:29;;;;;;;19.33;9.80;;;16.60;99.90;;;;;;5058795;28;20048;-70
2022/10/28 08:23:54;;;;;;;17.55;8.95;;;16.70;99.90;;;;;;5075469;28;20044;-70
2022/10/28 08:26:20;;;;;;;17.55;8.70;;;16.80;99.90;;;;;;5058941;28;20049;-70
2022/10/28 08:28:46;;;;;;;15.75;8.40;;;16.80;99.90;;;;;;5075479;28;20131;-70
2022/10/28 08:31:12;;;;;;;17.15;9.32;;;16.80;99.90;;;;;;5058654;28;20040;-70
2022/10/28 08:33:41;;;;;;;18.70;8.75;;;16.90;99.90;;;;;;5058771;28;20044;-70
2022/10/28 08:36:08;;;;;;;19.27;9.15;;;17.00;99.90;;;;;;5074597;28;20132;-70
2022/10/28 08:38:34;;;;;;;17.00;8.75;;;17.00;99.90;;;;;;5057261;28;20135;-70
2022/10/28 08:41:18;;;;;;;16.73;9.02;;;17.10;99.90;;;;;;4666485;28;10000604;-71
2022/10/28 08:44:22;;;;;;;19.80;8.85;;;17.20;99.90;;;;;;5072165;28;20056;-71
2022/10/28 08:47:35;;;;;;;19.90;8.63;;;17.20;99.90;;;;;;5066626;28;20366;-70
2022/10/28 08:50:21;;;;;;;17.98;9.40;;;17.30;99.90;;;;;;5064603;28;20041;-71
2022/10/28 08:52:52;;;;;;;19.73;9.43;;;17.40;99.90;;;;;;5053847;28;20072;-70
2022/10/28 08:55:23;;;;;;;24.85;9.52;;;17.60;99.90;;;;;;5052591;28;20049;-70
2022/10/28 08:58:00;;;;;;;15.27;9.20;;;17.70;99.90;;;;;;5038288;28;20504;-70
2022/10/28 09:00:29;;;;;;;17.80;9.50;;;17.80;99.90;;;;;;5061738;28;20037;-70
2022/10/28 09:03:16;;;;;;;16.55;9.10;;;17.90;99.90;;;;;;5034410;28;20061;-71
2022/10/28 09:05:44;;;;;;;22.83;9.88;;;18.00;99.90;;;;;;5051233;28;20059;-71
2022/10/28 09:08:21;;;;;;;20.27;10.05;;;18.10;99.90;;;;;;5051848;28;20051;-71
2022/10/28 09:11:05;;;;;;;20.70;9.60;;;18.20;99.90;;;;;;5034602;28;20525;-70
2022/10/28 09:14:08;;;;;;;21.17;9.32;;;18.40;99.90;;;;;;5055752;28;20052;-70
2022/10/28 09:16:34;;;;;;;18.23;9.55;;;18.50;99.90;;;;;;5062592;28;20084;-71
2022/10/28 09:19:15;;;;;;;18.27;9.38;;;18.60;99.90;;;;;;5051187;28;20155;-71
2022/10/28 09:21:48;;;;;;;18.67;9.27;;;18.60;99.90;;;;;;5048599;28;20045;-71
2022/10/28 09:24:37;;;;;;;14.68;8.55;;;18.60;99.90;;;;;;5035461;28;20178;-70
2022/10/28 09:27:17;;;;;;;18.10;7.82;;;18.60;99.90;;;;;;5051718;28;20052;-70
2022/10/28 09:30:14;;;;;;;17.60;7.72;;;18.60;99.90;;;;;;5039226;28;20057;-71
2022/10/28 09:33:03;;;;;;;13.90;6.70;;;18.70;99.90;;;;;;5051986;28;20107;-71
2022/10/28 09:35:35;;;;;;;15.45;7.30;;;18.70;99.90;;;;;;5051765;28;20119;-71
2022/10/28 09:38:12;;;;;;;14.15;7.20;;;18.70;99.90;;;;;;5051724;28;20055;-71
2022/10/28 09:40:41;;;;;;;16.45;6.55;;;18.70;99.90;;;;;;5057023;28;20373;-70
2022/10/28 09:43:27;;;;;;;15.35;7.03;;;18.70;99.90;;;;;;5069675;28;20037;-71
2022/10/28 09:45:57;;;;;;;14.52;6.82;;;18.70;99.90;;;;;;5054899;28;20400;-71
2022/10/28 09:48:30;;;;;;;16.55;7.38;;;18.80;99.90;;;;;;5039115;28;20652;-71
2022/10/28 09:50:57;;;;;;;14.10;6.80;;;18.80;99.90;;;;;;5063287;28;20147;-70
2022/10/28 09:53:52;;;;;;;16.60;7.30;;;18.80;99.90;;;;;;5050766;28;20473;-70
2022/10/28 09:56:17;;;;;;;18.67;6.93;;;18.90;99.90;;;;;;5050650;28;20060;-70
2022/10/28 09:58:47;;;;;;;14.75;7.07;;;18.90;99.90;;;;;;5034656;28;20424;-70
2022/10/28 10:01:16;;;;;;;17.23;6.75;;;18.90;99.90;;;;;;5050423;28;20063;-71
2022/10/28 10:03:44;;;;;;;12.30;6.15;;;18.90;99.90;;;;;;5050581;28;20079;-71
2022/10/28 10:06:19;;;;;;;12.65;7.25;;;18.90;99.90;;;;;;5020380;28;20045;-71
2022/10/28 10:08:47;;;;;;;14.15;6.80;;;19.00;99.90;;;;;;5034432;28;20080;-71
2022/10/28 10:11:32;;;;;;;22.02;7.40;;;19.00;99.90;;;;;;5034184;28;20479;-71
2022/10/28 10:14:03;;;;;;;14.27;6.72;;;19.10;99.90;;;;;;5034645;28;20425;-71
2022/10/28 10:16:46;;;;;;;17.40;6.57;;;19.10;99.90;;;;;;5033963;28;20052;-71
2022/10/28 10:19:12;;;;;;;14.57;6.68;;;19.10;99.90;;;;;;5050537;28;20051;-71
2022/10/28 10:21:45;;;;;;;17.40;6.78;;;19.20;99.90;;;;;;5050613;28;20428;-71
2022/10/28 10:24:27;;;;;;;16.13;6.57;;;19.30;99.90;;;;;;5034001;28;20041;-71
2022/10/28 10:26:53;;;;;;;14.82;6.90;;;19.30;99.90;;;;;;5050671;28;20100;-71
2022/10/28 10:29:21;;;;;;;16.42;6.63;;;19.30;99.90;;;;;;5033307;28;20068;-71
2022/10/28 10:31:47;;;;;;;13.70;6.88;;;19.30;99.90;;;;;;5033480;28;20120;-70
2022/10/28 10:34:25;;;;;;;17.80;7.03;;;19.40;99.90;;;;;;5050593;28;20250;-71
2022/10/28 10:36:54;;;;;;;14.82;6.10;;;19.40;99.90;;;;;;5047121;28;20043;-70
2022/10/28 10:39:25;;;;;;;14.07;6.57;;;19.40;99.90;;;;;;5033196;28;20053;-71
2022/10/28 10:41:53;;;;;;;12.25;6.50;;;19.40;99.90;;;;;;5033192;28;20041;-71
2022/10/28 10:44:22;;;;;;;11.10;6.55;;;19.40;99.90;;;;;;5033272;28;20049;-71
2022/10/28 10:46:59;;;;;;;14.25;6.32;;;19.40;99.90;;;;;;5049928;28;20103;-72
2022/10/28 10:49:29;;;;;;;14.15;6.63;;;19.40;99.90;;;;;;5050013;28;20060;-73
2022/10/28 10:52:01;;;;;;;17.42;6.63;;;19.50;99.90;;;;;;5033161;28;20049;-71
2022/10/28 10:54:30;;;;;;;14.25;6.85;;;19.50;99.90;;;;;;5032575;28;20049;-71
2022/10/28 10:57:09;;;;;;;13.75;6.60;;;19.50;99.90;;;;;;5033381;28;20048;-71
2022/10/28 10:59:36;;;;;;;15.48;6.70;;;19.50;99.90;;;;;;5033165;28;20033;-71
2022/10/28 11:02:18;;;;;;;16.17;6.53;;;19.60;99.90;;;;;;5032892;28;20045;-71
2022/10/28 11:04:50;;;;;;;18.27;6.88;;;19.70;99.90;;;;;;5048980;28;20634;-71
2022/10/28 11:07:15;;;;;;;13.57;6.50;;;19.80;99.90;;;;;;5049678;28;20052;-71
2022/10/28 11:09:41;;;;;;;15.55;6.45;;;19.90;99.90;;;;;;5016545;28;20188;-71
2022/10/28 11:12:34;;;;;;;18.10;6.97;;;19.90;99.90;;;;;;5049371;28;20099;-71
2022/10/28 11:15:20;;;;;;;16.20;6.35;;;19.90;99.90;;;;;;5047143;28;20041;-71
2022/10/28 11:18:02;;;;;;;16.98;7.55;;;20.00;99.90;;;;;;5032244;28;20045;-71
2022/10/28 11:20:49;;;;;;;;;;;20.00;99.90;;;;;;5033043;28;20068;-71
2022/10/28 11:23:37;;;;;;;17.77;6.45;;;20.10;99.90;;;;;;5032701;28;19921;-71
2022/10/28 11:26:07;;;;;;;14.57;6.43;;;20.10;99.90;;;;;;5049472;28;20072;-71
2022/10/28 11:28:56;;;;;;;13.77;6.40;;;20.10;99.90;;;;;;5065094;28;20512;-71
2022/10/28 11:31:31;;;;;;;13.35;6.32;;;20.10;99.90;;;;;;5052845;28;20501;-71
2022/10/28 11:34:24;;;;;;;17.90;6.47;;;20.10;99.90;;;;;;5049196;28;20066;-71
2022/10/28 11:37:13;;;;;;;14.57;6.25;;;20.30;99.90;;;;;;5049172;28;20516;-71
2022/10/28 11:39:39;;;;;;;14.13;7.20;;;20.60;99.90;;;;;;5032226;28;20054;-71
2022/10/28 11:42:10;;;;;;;17.23;7.07;;;20.90;99.90;;;;;;5049006;28;20044;-71
2022/10/28 11:44:45;;;;;;;16.05;6.80;;;21.00;99.90;;;;;;5054493;28;20041;-71
2022/10/28 11:47:21;;;;;;;15.27;7.55;;;20.90;99.90;;;;;;5045370;28;20056;-71
2022/10/28 11:50:21;;;;;;;15.20;6.05;;;21.20;99.90;;;;;;5053251;28;20040;-71
2022/10/28 11:52:56;;;;;;;16.08;6.72;;;21.40;99.90;;;;;;5048683;28;20057;-71
2022/10/28 11:55:50;;;;;;;18.23;7.90;;;21.70;99.90;;;;;;5048752;28;20048;-71
2022/10/28 11:58:33;;;;;;;15.55;7.20;;;21.80;99.90;;;;;;5047499;28;20053;-71
2022/10/28 12:01:21;;;;;;;17.25;7.60;;;21.60;99.90;;;;;;5049963;28;20147;-71
2022/10/28 12:04:05;;;;;;;19.13;6.47;;;21.40;99.90;;;;;;5031389;28;20058;-71
2022/10/28 12:06:46;;;;;;;16.00;7.18;;;21.40;99.90;;;;;;5034113;28;20044;-71
2022/10/28 12:09:30;;;;;;;12.68;6.60;;;21.30;99.90;;;;;;5029553;28;20496;-72
2022/10/28 12:12:27;;;;;;;13.75;6.20;;;21.20;99.90;;;;;;5058945;28;20136;-72
2022/10/28 12:15:35;;;;;;;15.77;6.63;;;21.20;99.90;;;;;;5049303;28;20211;-71
2022/10/28 12:18:24;;;;;;;16.88;6.55;;;21.30;99.90;;;;;;5032170;28;20117;-71
2022/10/28 12:20:58;;;;;;;16.25;5.90;;;21.30;99.90;;;;;;5049045;28;20076;-71
2022/10/28 12:23:26;;;;;;;13.13;6.68;;;21.20;99.90;;;;;;5032420;28;20110;-72
2022/10/28 12:25:56;;;;;;;16.15;6.38;;;21.20;99.90;;;;;;5032476;28;20095;-71
2022/10/28 12:28:27;;;;;;;13.10;5.78;;;21.20;99.90;;;;;;5048548;28;20493;-71
2022/10/28 12:30:54;;;;;;;13.70;5.68;;;21.30;99.90;;;;;;5032155;28;20048;-71
2022/10/28 12:33:33;;;;;;;17.67;6.00;;;21.50;99.90;;;;;;5048775;28;20053;-71
2022/10/28 12:36:11;;;;;;;15.93;5.93;;;21.40;99.90;;;;;;5032534;28;20064;-71
2022/10/28 12:39:17;;;;;;;13.13;5.70;;;21.40;99.90;;;;;;5049181;28;20045;-71
2022/10/28 12:41:57;;;;;;;13.35;5.80;;;21.40;99.90;;;;;;5050553;28;20473;-71
2022/10/28 12:44:25;;;;;;;14.00;6.30;;;21.20;99.90;;;;;;5051115;28;20203;-70
2022/10/28 12:47:01;;;;;;;14.23;6.20;;;21.20;99.90;;;;;;5018309;28;20063;-71
2022/10/28 12:49:48;;;;;;;14.20;5.18;;;21.10;99.90;;;;;;5051231;28;20056;-72
2022/10/28 12:52:36;;;;;;;14.23;6.53;;;21.00;99.90;;;;;;5051403;28;20049;-72
2022/10/28 12:55:17;;;;;;;15.10;6.47;;;20.90;99.90;;;;;;5054873;28;20099;-71